createdAt,value
2022-09-20T00:01:53.056Z,59.08
2022-09-20T00:04:22.336Z,59.12
2022-09-20T00:06:52.375Z,59.48
2022-09-20T00:09:22.061Z,59.42
2022-09-20T00:11:51.847Z,58.75
2022-09-20T00:14:20.621Z,59.18
2022-09-20T00:16:49.390Z,59.72
2022-09-20T00:19:23.150Z,58.77
2022-09-20T00:21:51.845Z,58.90
2022-09-20T00:24:20.866Z,58.11
2022-09-20T00:26:49.451Z,57.28
2022-09-20T00:29:18.141Z,57.54
2022-09-20T00:31:48.063Z,57.56
2022-09-20T00:34:35.038Z,57.51
2022-09-20T00:37:03.870Z,56.84
2022-09-20T00:39:32.807Z,56.79
2022-09-20T00:42:01.603Z,56.87
2022-09-20T00:45:00.843Z,56.62
2022-09-20T00:47:37.021Z,57.46
2022-09-20T00:50:42.368Z,56.98
2022-09-20T00:53:17.421Z,57.39
2022-09-20T00:56:02.500Z,57.02
2022-09-20T00:58:37.687Z,57.81
2022-09-20T01:01:07.570Z,56.50
2022-09-20T01:03:37.957Z,56.47
2022-09-20T01:06:11.008Z,57.21
2022-09-20T01:08:40.887Z,57.35
2022-09-20T01:11:09.585Z,55.49
2022-09-20T01:13:38.416Z,56.59
2022-09-20T01:16:08.801Z,57.21
2022-09-20T01:18:39.196Z,56.87
2022-09-20T01:21:09.795Z,56.42
2022-09-20T01:23:57.466Z,56.47
2022-09-20T01:26:28.837Z,56.17
2022-09-20T01:29:17.667Z,56.62
2022-09-20T01:31:53.808Z,56.79
2022-09-20T01:34:29.944Z,56.82
2022-09-20T01:37:23.963Z,56.44
2022-09-20T01:39:58.245Z,56.70
2022-09-20T01:42:37.138Z,56.46
2022-09-20T01:45:23.236Z,56.28
2022-09-20T01:48:20.025Z,56.56
2022-09-20T01:51:19.748Z,55.83
2022-09-20T01:54:40.943Z,55.01
2022-09-20T01:57:40.062Z,53.81
2022-09-20T02:00:18.641Z,53.48
2022-09-20T02:03:05.649Z,53.47
2022-09-20T02:06:11.803Z,54.37
2022-09-20T02:08:49.718Z,54.68
2022-09-20T02:11:45.661Z,55.01
2022-09-20T02:14:50.417Z,55.17
2022-09-20T02:17:49.637Z,55.19
2022-09-20T02:20:48.561Z,56.06
2022-09-20T02:23:37.887Z,55.04
2022-09-20T02:26:45.850Z,56.11
2022-09-20T02:29:41.034Z,55.76
2022-09-20T02:32:19.473Z,55.40
2022-09-20T02:35:37.130Z,56.12
2022-09-20T02:38:23.653Z,56.06
2022-09-20T02:41:09.693Z,55.55
2022-09-20T02:44:17.891Z,55.07
2022-09-20T02:47:08.089Z,55.07
2022-09-20T02:50:07.408Z,56.63
2022-09-20T02:52:44.435Z,54.70
2022-09-20T02:55:19.731Z,55.15
2022-09-20T02:58:05.951Z,55.13
2022-09-20T03:00:44.027Z,54.79
2022-09-20T03:03:19.034Z,54.26
2022-09-20T03:05:56.393Z,54.67
2022-09-20T03:08:34.213Z,54.79
2022-09-20T03:11:21.193Z,54.87
2022-09-20T03:14:06.385Z,54.29
2022-09-20T03:17:22.329Z,53.25
2022-09-20T03:20:16.761Z,54.29
2022-09-20T03:23:14.570Z,53.69
2022-09-20T03:25:58.305Z,53.92
2022-09-20T03:29:08.002Z,52.54
2022-09-20T03:31:55.617Z,55.15
2022-09-20T03:34:33.421Z,52.46
2022-09-20T03:37:17.445Z,53.07
2022-09-20T03:40:16.674Z,52.50
2022-09-20T03:42:52.767Z,53.20
2022-09-20T03:45:34.068Z,52.98
2022-09-20T03:48:30.734Z,52.62
2022-09-20T03:51:24.634Z,52.20
2022-09-20T03:54:13.890Z,52.43
2022-09-20T03:57:20.192Z,52.54
2022-09-20T04:00:06.830Z,52.93
2022-09-20T04:03:23.248Z,52.20
2022-09-20T04:06:11.090Z,51.97
2022-09-20T04:08:55.677Z,53.07
2022-09-20T04:12:00.436Z,52.65
2022-09-20T04:14:54.390Z,52.41
2022-09-20T04:17:47.624Z,53.40
2022-09-20T04:20:16.474Z,53.68
2022-09-20T04:22:47.654Z,54.03
2022-09-20T04:25:24.205Z,53.31
2022-09-20T04:28:11.875Z,54.22
2022-09-20T04:30:44.916Z,55.01
2022-09-20T04:33:26.677Z,54.66
2022-09-20T04:36:32.537Z,53.90
2022-09-20T04:39:02.759Z,53.91
2022-09-20T04:42:09.764Z,53.69
2022-09-20T04:44:56.664Z,54.43
2022-09-20T04:47:40.230Z,54.22
2022-09-20T04:50:31.552Z,55.38
2022-09-20T04:53:30.431Z,55.14
2022-09-20T04:56:08.221Z,55.27
2022-09-20T04:59:06.885Z,55.72
2022-09-20T05:02:29.797Z,54.75
2022-09-20T05:05:22.503Z,55.68
2022-09-20T05:08:35.088Z,55.39
2022-09-20T05:11:32.304Z,54.95
2022-09-20T05:14:28.476Z,55.61
2022-09-20T05:17:15.497Z,54.81
2022-09-20T05:20:04.137Z,54.99
2022-09-20T05:22:54.284Z,53.75
2022-09-20T05:25:40.777Z,54.33
2022-09-20T05:28:24.971Z,53.79
2022-09-20T05:30:58.726Z,53.99
2022-09-20T05:33:49.104Z,53.00
2022-09-20T05:36:45.410Z,52.24
2022-09-20T05:39:48.896Z,52.97
2022-09-20T05:42:24.739Z,53.70
2022-09-20T05:45:07.494Z,53.14
2022-09-20T05:48:37.980Z,52.65
2022-09-20T05:51:11.657Z,52.28
2022-09-20T05:54:18.287Z,53.00
2022-09-20T05:57:08.176Z,52.65
2022-09-20T06:00:28.680Z,51.34
2022-09-20T06:03:22.351Z,52.00
2022-09-20T06:06:12.292Z,52.10
2022-09-20T06:09:02.094Z,51.20
2022-09-20T06:11:49.604Z,50.16
2022-09-20T06:14:45.839Z,49.14
2022-09-20T06:17:20.147Z,49.32
2022-09-20T06:20:04.160Z,49.43
2022-09-20T06:22:39.679Z,49.46
2022-09-20T06:25:08.556Z,49.25
2022-09-20T06:27:54.748Z,49.25
2022-09-20T06:30:31.715Z,49.79
2022-09-20T06:33:14.831Z,49.48
2022-09-20T06:35:54.742Z,49.32
2022-09-20T06:39:00.283Z,48.99
2022-09-20T06:41:31.940Z,48.59
2022-09-20T06:44:07.404Z,49.70
2022-09-20T06:46:37.241Z,49.13
2022-09-20T06:49:09.453Z,49.78
2022-09-20T06:51:40.175Z,48.65
2022-09-20T06:54:16.322Z,48.51
2022-09-20T06:56:47.678Z,49.12
2022-09-20T06:59:16.280Z,49.31
2022-09-20T07:01:45.711Z,48.74
2022-09-20T07:04:14.597Z,49.08
2022-09-20T07:06:43.300Z,48.54
2022-09-20T07:09:12.680Z,48.11
2022-09-20T07:11:41.432Z,47.71
2022-09-20T07:14:10.315Z,47.97
2022-09-20T07:16:39.518Z,48.02
2022-09-20T07:19:09.020Z,48.56
2022-09-20T07:21:38.023Z,48.17
2022-09-20T07:24:06.843Z,46.92
2022-09-20T07:26:35.875Z,46.35
2022-09-20T07:29:04.995Z,47.02
2022-09-20T07:31:34.178Z,47.23
2022-09-20T07:34:03.098Z,47.23
2022-09-20T07:36:31.717Z,46.91
2022-09-20T07:39:00.592Z,46.91
2022-09-20T07:41:32.093Z,45.90
2022-09-20T07:44:20.686Z,46.41
2022-09-20T07:46:50.480Z,46.27
2022-09-20T07:49:19.744Z,45.59
2022-09-20T07:51:49.767Z,44.12
2022-09-20T07:54:18.993Z,43.98
2022-09-20T07:56:48.428Z,43.81
2022-09-20T07:59:17.421Z,43.07
2022-09-20T08:01:46.291Z,42.67
2022-09-20T08:04:15.486Z,43.03
2022-09-20T08:06:46.067Z,41.87
2022-09-20T08:09:15.642Z,41.61
2022-09-20T08:11:44.766Z,41.39
2022-09-20T08:14:18.735Z,41.41
2022-09-20T08:16:53.431Z,40.60
2022-09-20T08:19:23.827Z,40.81
2022-09-20T08:21:54.771Z,40.72
2022-09-20T08:24:23.897Z,40.78
2022-09-20T08:26:52.776Z,39.86
2022-09-20T08:29:21.668Z,39.79
2022-09-20T08:31:50.308Z,39.97
2022-09-20T08:34:19.579Z,38.85
2022-09-20T08:36:50.856Z,39.83
2022-09-20T08:42:24.477Z,39.57
2022-09-20T08:45:02.558Z,39.80
2022-09-20T08:47:37.855Z,39.06
2022-09-20T08:50:09.494Z,38.82
2022-09-20T08:52:40.942Z,38.05
2022-09-20T08:55:19.483Z,38.06
2022-09-20T08:57:55.413Z,37.99
2022-09-20T09:00:27.756Z,37.79
2022-09-20T09:02:59.011Z,38.40
2022-09-20T09:05:44.131Z,37.33
2022-09-20T09:08:23.148Z,37.59
2022-09-20T09:11:18.535Z,37.34
2022-09-20T09:14:05.449Z,37.33
2022-09-20T09:16:36.658Z,37.02
2022-09-20T09:19:34.576Z,37.67
2022-09-20T09:22:06.495Z,36.88
2022-09-20T09:24:35.083Z,37.58
2022-09-20T09:27:20.750Z,37.23
2022-09-20T09:29:55.820Z,37.54
2022-09-20T09:32:30.065Z,36.96
2022-09-20T09:35:21.257Z,37.20
2022-09-20T09:37:59.315Z,37.35
2022-09-20T09:40:30.287Z,37.77
2022-09-20T09:43:02.462Z,37.91
2022-09-20T09:45:39.381Z,37.65
2022-09-20T09:48:22.748Z,37.09
2022-09-20T09:50:52.370Z,37.26
2022-09-20T09:53:24.076Z,38.10
2022-09-20T09:55:53.406Z,38.02
2022-09-20T09:58:40.114Z,37.16
2022-09-20T10:01:22.398Z,36.97
2022-09-20T10:04:02.150Z,37.53
2022-09-20T10:06:52.227Z,37.80
2022-09-20T10:09:32.784Z,37.71
2022-09-20T10:12:58.669Z,38.11
2022-09-20T10:15:42.424Z,37.31
2022-09-20T10:18:25.463Z,37.42
2022-09-20T10:21:09.198Z,37.94
2022-09-20T10:24:02.722Z,38.23
2022-09-20T10:26:50.500Z,37.84
2022-09-20T10:29:32.699Z,38.23
2022-09-20T10:32:16.882Z,38.26
2022-09-20T10:35:15.242Z,37.88
2022-09-20T10:38:02.145Z,38.54
2022-09-20T10:41:16.909Z,37.83
2022-09-20T10:44:19.678Z,38.02
2022-09-20T10:47:03.237Z,38.08
2022-09-20T10:49:50.719Z,37.41
2022-09-20T10:52:32.508Z,38.13
2022-09-20T10:55:36.087Z,37.77
2022-09-20T10:58:22.637Z,37.99
2022-09-20T11:01:01.667Z,37.85
2022-09-20T11:03:49.170Z,37.39
2022-09-20T11:06:40.956Z,38.36
2022-09-20T11:09:18.351Z,38.30
2022-09-20T11:12:11.152Z,37.76
2022-09-20T11:15:05.267Z,37.51
2022-09-20T11:17:42.121Z,38.24
2022-09-20T11:20:23.410Z,38.48
2022-09-20T11:23:12.884Z,38.56
2022-09-20T11:25:49.255Z,37.68
2022-09-20T11:28:27.241Z,38.02
2022-09-20T11:31:27.165Z,38.58
2022-09-20T11:34:02.502Z,39.01
2022-09-20T11:36:44.653Z,38.88
2022-09-20T11:39:26.637Z,39.67
2022-09-20T11:41:58.020Z,38.88
2022-09-20T11:44:27.226Z,38.79
2022-09-20T11:47:04.510Z,38.36
2022-09-20T11:49:51.281Z,38.82
2022-09-20T11:52:44.450Z,38.53
2022-09-20T11:55:42.021Z,39.03
2022-09-20T11:58:17.804Z,39.04
2022-09-20T12:00:49.723Z,39.61
2022-09-20T12:03:40.990Z,39.86
2022-09-20T12:06:21.471Z,40.32
2022-09-20T12:08:52.646Z,40.42
2022-09-20T12:11:34.542Z,39.86
2022-09-20T12:14:08.309Z,40.66
2022-09-20T12:16:47.746Z,41.13
2022-09-20T12:19:22.458Z,41.30
2022-09-20T12:22:00.471Z,42.19
2022-09-20T12:24:34.665Z,42.23
2022-09-20T12:27:23.065Z,42.16
2022-09-20T12:30:04.126Z,42.79
2022-09-20T12:32:46.100Z,43.89
2022-09-20T12:35:53.706Z,44.51
2022-09-20T12:38:22.396Z,44.72
2022-09-20T12:41:15.054Z,44.97
2022-09-20T12:44:22.809Z,45.21
2022-09-20T12:47:01.066Z,45.89
2022-09-20T12:49:48.099Z,46.50
2022-09-20T12:52:56.561Z,47.49
2022-09-20T12:55:31.006Z,48.71
2022-09-20T12:57:59.561Z,48.03
2022-09-20T13:00:40.346Z,49.19
2022-09-20T13:03:29.257Z,49.81
2022-09-20T13:06:07.476Z,49.82
2022-09-20T13:08:49.001Z,50.35
2022-09-20T13:11:42.812Z,50.53
2022-09-20T13:14:25.025Z,51.53
2022-09-20T13:17:21.870Z,51.79
2022-09-20T13:19:56.713Z,52.42
2022-09-20T13:25:14.177Z,53.16
2022-09-20T13:28:25.440Z,53.82
2022-09-20T13:31:34.709Z,54.46
2022-09-20T13:34:26.809Z,54.89
2022-09-20T13:36:59.005Z,54.86
2022-09-20T13:39:38.208Z,55.25
2022-09-20T13:42:13.506Z,55.78
2022-09-20T13:44:49.779Z,56.23
2022-09-20T13:47:27.566Z,56.46
2022-09-20T13:50:19.615Z,56.02
2022-09-20T13:52:57.226Z,56.72
2022-09-20T13:55:29.574Z,57.29
2022-09-20T13:58:03.813Z,57.26
2022-09-20T14:00:35.698Z,56.92
2022-09-20T14:03:05.866Z,57.89
2022-09-20T14:05:35.027Z,57.75
2022-09-20T14:08:04.248Z,57.69
2022-09-20T14:10:41.644Z,57.87
2022-09-20T14:13:17.799Z,58.00
2022-09-20T14:15:48.949Z,58.45
2022-09-20T14:18:21.988Z,58.38
2022-09-20T14:20:51.319Z,58.48
2022-09-20T14:23:28.489Z,58.48
2022-09-20T14:26:30.227Z,58.94
2022-09-20T14:29:40.852Z,59.41
2022-09-20T14:32:18.478Z,59.76
2022-09-20T14:34:57.587Z,59.89
2022-09-20T14:37:26.667Z,60.50
2022-09-20T14:40:01.851Z,60.85
2022-09-20T14:43:04.371Z,60.45
2022-09-20T14:45:36.005Z,61.26
2022-09-20T14:48:27.627Z,61.16
2022-09-20T14:51:19.604Z,61.68
2022-09-20T14:53:52.488Z,62.10
2022-09-20T14:56:35.431Z,61.79
2022-09-20T14:59:22.004Z,62.17
2022-09-20T15:02:04.232Z,62.23
2022-09-20T15:04:38.809Z,62.73
2022-09-20T15:07:14.370Z,62.95
2022-09-20T15:09:43.230Z,62.90
2022-09-20T15:12:18.908Z,63.56
2022-09-20T15:14:48.893Z,63.11
2022-09-20T15:17:22.893Z,63.87
2022-09-20T15:19:51.732Z,64.10
2022-09-20T15:22:22.919Z,64.91
2022-09-20T15:24:51.705Z,64.68
2022-09-20T15:27:21.075Z,64.99
2022-09-20T15:29:51.953Z,64.11
2022-09-20T15:32:20.728Z,64.70
2022-09-20T15:34:49.540Z,65.19
2022-09-20T15:37:18.473Z,65.28
2022-09-20T15:39:47.266Z,64.78
2022-09-20T15:42:17.653Z,65.44
2022-09-20T15:44:53.968Z,65.82
2022-09-20T15:47:24.259Z,66.43
2022-09-20T15:49:57.579Z,66.13
2022-09-20T15:52:29.956Z,66.72
2022-09-20T15:55:14.158Z,66.71
2022-09-20T15:57:42.927Z,67.21
2022-09-20T16:00:11.970Z,67.42
2022-09-20T16:02:40.900Z,66.74
2022-09-20T16:05:10.788Z,67.66
2022-09-20T16:07:39.788Z,67.31
2022-09-20T16:10:10.350Z,67.60
2022-09-20T16:12:41.616Z,67.72
2022-09-20T16:15:11.252Z,68.31
2022-09-20T16:17:58.337Z,68.50
2022-09-20T16:20:27.165Z,68.52
2022-09-20T16:22:55.860Z,68.34
2022-09-20T16:25:24.626Z,68.52
2022-09-20T16:27:53.495Z,68.83
2022-09-20T16:30:22.186Z,68.12
2022-09-20T16:32:51.591Z,68.87
2022-09-20T16:35:20.537Z,68.51
2022-09-20T16:37:49.449Z,69.12
2022-09-20T16:40:18.354Z,69.31
2022-09-20T16:42:52.229Z,69.76
2022-09-20T16:45:22.287Z,69.51
2022-09-20T16:47:50.963Z,69.14
2022-09-20T16:50:20.205Z,69.80
2022-09-20T16:52:49.044Z,70.28
2022-09-20T16:55:18.842Z,70.44
2022-09-20T16:57:53.829Z,70.21
2022-09-20T17:00:22.837Z,70.00
2022-09-20T17:02:52.117Z,70.32
2022-09-20T17:05:20.860Z,70.47
2022-09-20T17:07:49.779Z,69.85
2022-09-20T17:10:18.626Z,70.08
2022-09-20T17:12:53.514Z,69.87
2022-09-20T17:15:24.054Z,70.58
2022-09-20T17:17:52.720Z,70.69
2022-09-20T17:20:21.520Z,70.48
2022-09-20T17:22:50.300Z,69.70
2022-09-20T17:25:19.300Z,69.49
2022-09-20T17:27:50.187Z,70.04
2022-09-20T17:30:20.724Z,70.65
2022-09-20T17:32:52.457Z,71.39
2022-09-20T17:35:21.571Z,71.48
2022-09-20T17:37:50.856Z,71.01
2022-09-20T17:40:19.737Z,70.99
2022-09-20T17:42:51.382Z,71.45
2022-09-20T17:45:20.321Z,71.40
2022-09-20T17:47:49.004Z,71.24
2022-09-20T17:50:18.145Z,70.95
2022-09-20T17:52:50.482Z,71.12
2022-09-20T17:55:20.760Z,71.43
2022-09-20T17:57:50.490Z,71.32
2022-09-20T18:00:21.190Z,71.67
2022-09-20T18:02:50.112Z,72.20
2022-09-20T18:05:20.138Z,72.26
2022-09-20T18:07:49.290Z,71.79
2022-09-20T18:10:18.410Z,72.09
2022-09-20T18:12:47.909Z,72.39
2022-09-20T18:15:17.587Z,72.35
2022-09-20T18:17:47.796Z,72.92
2022-09-20T18:20:18.852Z,72.79
2022-09-20T18:22:50.756Z,72.41
2022-09-20T18:25:20.402Z,72.53
2022-09-20T18:27:50.194Z,71.95
2022-09-20T18:30:21.705Z,72.27
2022-09-20T18:32:53.424Z,71.67
2022-09-20T18:35:22.429Z,71.75
2022-09-20T18:37:51.082Z,72.34
2022-09-20T18:40:20.768Z,72.02
2022-09-20T18:42:52.855Z,72.18
2022-09-20T18:45:24.093Z,72.26
2022-09-20T18:47:57.885Z,71.89
2022-09-20T18:50:27.423Z,71.97
2022-09-20T18:52:56.479Z,72.55
2022-09-20T18:55:26.983Z,72.64
2022-09-20T18:58:00.685Z,72.92
2022-09-20T19:00:30.475Z,72.94
2022-09-20T19:03:12.066Z,72.41
2022-09-20T19:05:52.713Z,72.92
2022-09-20T19:08:35.104Z,71.98
2022-09-20T19:11:11.659Z,72.37
2022-09-20T19:13:47.777Z,72.46
2022-09-20T19:16:28.681Z,73.20
2022-09-20T19:19:22.553Z,72.66
2022-09-20T19:21:51.925Z,72.70
2022-09-20T19:24:40.443Z,72.53
2022-09-20T19:27:13.047Z,72.45
2022-09-20T19:29:42.844Z,72.72
2022-09-20T19:32:19.623Z,72.64
2022-09-20T19:34:52.465Z,73.31
2022-09-20T19:37:28.319Z,73.72
2022-09-20T19:40:35.977Z,73.52
2022-09-20T19:43:36.658Z,72.82
2022-09-20T19:46:33.056Z,73.35
2022-09-20T19:49:15.732Z,72.50
2022-09-20T19:51:46.331Z,72.79
2022-09-20T19:54:15.918Z,73.26
2022-09-20T19:57:08.322Z,73.09
2022-09-20T19:59:37.056Z,73.29
2022-09-20T20:02:06.641Z,73.04
2022-09-20T20:04:35.505Z,73.36
2022-09-20T20:07:21.491Z,73.55
2022-09-20T20:10:26.060Z,73.21
2022-09-20T20:13:37.484Z,73.55
2022-09-20T20:16:12.152Z,73.66
2022-09-20T20:19:07.546Z,73.60
2022-09-20T20:21:58.457Z,73.83
2022-09-20T20:24:50.820Z,73.88
2022-09-20T20:27:20.527Z,73.96
2022-09-20T20:29:50.129Z,74.10
2022-09-20T20:32:19.129Z,74.22
2022-09-20T20:34:47.825Z,73.80
2022-09-20T20:37:18.914Z,74.19
2022-09-20T20:39:47.592Z,73.77
2022-09-20T20:42:16.725Z,74.02
2022-09-20T20:44:46.242Z,73.45
2022-09-20T20:47:14.989Z,73.71
2022-09-20T20:49:43.639Z,73.73
2022-09-20T20:52:12.276Z,73.41
2022-09-20T20:54:41.007Z,73.91
2022-09-20T20:57:09.522Z,74.13
2022-09-20T20:59:41.009Z,74.47
2022-09-20T21:02:10.075Z,74.38
2022-09-20T21:04:40.818Z,74.54
2022-09-20T21:07:09.402Z,74.02
2022-09-20T21:09:38.415Z,73.92
2022-09-20T21:12:07.433Z,74.09
2022-09-20T21:14:36.098Z,74.20
2022-09-20T21:17:05.546Z,74.45
2022-09-20T21:19:35.022Z,74.77
2022-09-20T21:22:05.553Z,75.12
2022-09-20T21:24:34.427Z,74.95
2022-09-20T21:27:05.946Z,74.88
2022-09-20T21:29:35.023Z,75.66
2022-09-20T21:32:03.875Z,76.01
2022-09-20T21:34:32.894Z,75.05
2022-09-20T21:37:01.417Z,76.14
2022-09-20T21:39:30.831Z,76.22
2022-09-20T21:41:59.886Z,75.80
2022-09-20T21:44:28.551Z,75.69
2022-09-20T21:46:57.831Z,75.78
2022-09-20T21:49:26.680Z,76.19
2022-09-20T21:51:55.474Z,76.14
2022-09-20T21:54:25.042Z,76.55
2022-09-20T21:56:56.949Z,76.22
2022-09-20T21:59:27.672Z,76.31
2022-09-20T22:01:57.221Z,76.37
2022-09-20T22:04:29.774Z,76.90
2022-09-20T22:06:59.189Z,77.61
2022-09-20T22:09:27.854Z,77.40
2022-09-20T22:11:56.654Z,77.98
2022-09-20T22:14:25.551Z,77.42
2022-09-20T22:16:54.589Z,77.88
2022-09-20T22:19:23.308Z,78.01
2022-09-20T22:21:52.866Z,77.73
2022-09-20T22:24:22.262Z,77.52
2022-09-20T22:26:52.199Z,78.05
2022-09-20T22:29:21.675Z,78.51
2022-09-20T22:31:51.118Z,78.00
2022-09-20T22:34:25.024Z,78.19
2022-09-20T22:36:54.538Z,77.98
2022-09-20T22:39:24.974Z,78.22
2022-09-20T22:41:55.805Z,77.73
2022-09-20T22:44:25.182Z,78.06
2022-09-20T22:46:54.519Z,78.37
2022-09-20T22:49:23.623Z,77.90
2022-09-20T22:51:53.327Z,78.10
2022-09-20T22:54:23.287Z,78.16
2022-09-20T22:56:53.051Z,77.79
2022-09-20T22:59:22.060Z,77.75
2022-09-20T23:01:51.637Z,77.98
2022-09-20T23:04:24.349Z,77.58
2022-09-20T23:06:57.497Z,78.62
2022-09-20T23:09:30.989Z,78.13
2022-09-20T23:12:00.024Z,78.09
2022-09-20T23:14:28.747Z,77.67
2022-09-20T23:16:57.642Z,78.23
2022-09-20T23:19:27.026Z,78.44
2022-09-20T23:21:55.886Z,78.61
2022-09-20T23:24:24.557Z,78.54
2022-09-20T23:26:53.267Z,77.61
2022-09-20T23:29:23.199Z,78.51
2022-09-20T23:31:54.892Z,78.34
2022-09-20T23:34:23.837Z,78.63
2022-09-20T23:36:52.693Z,78.43
2022-09-20T23:39:21.654Z,78.46
2022-09-20T23:41:51.431Z,79.74
2022-09-20T23:44:20.332Z,78.85
2022-09-20T23:46:49.322Z,79.25
2022-09-20T23:49:18.136Z,79.30
2022-09-20T23:51:47.505Z,79.53
2022-09-20T23:54:16.446Z,79.92
2022-09-20T23:56:45.232Z,79.26
2022-09-20T23:59:14.168Z,79.97
